createdAt,value
2023-05-09T00:02:00.023Z,12.43
2023-05-09T00:04:28.144Z,12.40
2023-05-09T00:06:56.186Z,13.33
2023-05-09T00:09:24.046Z,16.17
2023-05-09T00:11:51.986Z,18.70
2023-05-09T00:14:21.846Z,12.60
2023-05-09T00:16:50.748Z,11.80
2023-05-09T00:19:18.695Z,12.03
2023-05-09T00:21:47.416Z,13.27
2023-05-09T00:24:15.260Z,14.47
2023-05-09T00:26:43.090Z,11.60
2023-05-09T00:29:11.096Z,13.80
2023-05-09T00:31:40.400Z,14.87
2023-05-09T00:34:08.265Z,14.73
2023-05-09T00:36:36.131Z,15.20
2023-05-09T00:39:05.528Z,13.77
2023-05-09T00:41:33.442Z,15.90
2023-05-09T00:44:01.295Z,14.83
2023-05-09T00:46:29.308Z,14.43
2023-05-09T00:48:58.528Z,17.40
2023-05-09T00:51:26.892Z,16.93
2023-05-09T00:53:54.719Z,14.80
2023-05-09T00:56:22.800Z,17.27
2023-05-09T00:58:50.805Z,15.30
2023-05-09T01:01:18.748Z,16.63
2023-05-09T01:03:47.526Z,17.67
2023-05-09T01:06:22.085Z,18.50
2023-05-09T01:08:57.224Z,19.80
2023-05-09T01:11:32.387Z,16.20
2023-05-09T01:14:07.349Z,16.00
2023-05-09T01:16:40.223Z,17.30
2023-05-09T01:19:18.155Z,17.00
2023-05-09T01:21:49.181Z,18.43
2023-05-09T01:24:35.547Z,16.67
2023-05-09T01:27:22.237Z,16.73
2023-05-09T01:29:53.179Z,19.50
2023-05-09T01:32:24.777Z,16.73
2023-05-09T01:34:54.042Z,18.37
2023-05-09T01:37:25.872Z,18.97
2023-05-09T01:39:55.002Z,17.77
2023-05-09T01:42:23.968Z,17.60
2023-05-09T01:44:53.981Z,17.97
2023-05-09T01:47:22.319Z,24.63
2023-05-09T01:49:50.962Z,21.13
2023-05-09T01:52:20.243Z,17.53
2023-05-09T01:54:48.985Z,18.63
2023-05-09T01:57:18.068Z,21.87
2023-05-09T01:59:46.491Z,21.60
2023-05-09T02:02:16.007Z,20.60
2023-05-09T02:04:45.412Z,22.07
2023-05-09T02:07:13.942Z,18.30
2023-05-09T02:09:41.872Z,19.00
2023-05-09T02:12:09.698Z,23.10
2023-05-09T02:14:37.553Z,19.33
2023-05-09T02:17:07.053Z,22.50
2023-05-09T02:19:37.142Z,18.33
2023-05-09T02:22:05.949Z,21.70
2023-05-09T02:24:35.113Z,20.10
2023-05-09T02:27:04.331Z,22.53
2023-05-09T02:29:39.862Z,23.93
2023-05-09T02:32:09.591Z,18.70
2023-05-09T02:34:39.752Z,18.77
2023-05-09T02:37:08.275Z,18.30
2023-05-09T02:39:36.774Z,19.67
2023-05-09T02:42:08.131Z,21.73
2023-05-09T02:44:36.238Z,21.20
2023-05-09T02:47:04.388Z,25.00
2023-05-09T02:49:32.836Z,20.93
2023-05-09T02:52:03.826Z,22.53
2023-05-09T02:54:31.910Z,25.40
2023-05-09T02:57:00.147Z,22.20
2023-05-09T02:59:28.257Z,22.57
2023-05-09T03:01:57.747Z,25.83
2023-05-09T03:04:26.224Z,25.30
2023-05-09T03:06:54.223Z,25.47
2023-05-09T03:09:24.034Z,23.80
2023-05-09T03:11:51.963Z,19.90
2023-05-09T03:14:19.776Z,24.20
2023-05-09T03:16:47.770Z,26.70
2023-05-09T03:19:27.152Z,25.10
2023-05-09T03:21:54.958Z,24.30
2023-05-09T03:24:24.247Z,28.10
2023-05-09T03:26:52.089Z,25.87
2023-05-09T03:29:19.899Z,27.97
2023-05-09T03:31:48.407Z,27.17
2023-05-09T03:34:16.356Z,25.20
2023-05-09T03:36:45.518Z,25.47
2023-05-09T03:39:15.611Z,23.00
2023-05-09T03:41:48.835Z,21.53
2023-05-09T03:44:16.780Z,23.83
2023-05-09T03:46:44.749Z,23.30
2023-05-09T03:49:13.463Z,21.50
2023-05-09T03:51:42.287Z,22.00
2023-05-09T03:54:14.627Z,23.87
2023-05-09T03:56:42.591Z,24.43
2023-05-09T03:59:12.251Z,23.27
2023-05-09T04:01:40.944Z,28.03
2023-05-09T04:04:09.685Z,23.10
2023-05-09T04:06:38.026Z,24.67
2023-05-09T04:09:08.128Z,25.20
2023-05-09T04:11:36.004Z,28.90
2023-05-09T04:14:07.239Z,27.43
2023-05-09T04:16:38.447Z,25.83
2023-05-09T04:19:07.278Z,33.80
2023-05-09T04:21:36.560Z,24.13
2023-05-09T04:24:05.869Z,22.60
2023-05-09T04:26:41.639Z,24.27
2023-05-09T04:29:13.059Z,25.00
2023-05-09T04:31:42.553Z,26.80
2023-05-09T04:34:13.437Z,25.40
2023-05-09T04:36:41.520Z,26.40
2023-05-09T04:39:10.544Z,28.10
2023-05-09T04:41:40.665Z,27.43
2023-05-09T04:44:09.474Z,22.27
2023-05-09T04:46:38.553Z,23.90
2023-05-09T04:49:08.339Z,23.07
2023-05-09T04:51:36.266Z,22.17
2023-05-09T04:54:04.461Z,23.20
2023-05-09T04:56:35.713Z,24.67
2023-05-09T04:59:03.645Z,25.80
2023-05-09T05:01:31.667Z,23.67
2023-05-09T05:04:00.640Z,24.63
2023-05-09T05:06:31.740Z,23.03
2023-05-09T05:08:59.904Z,28.10
2023-05-09T05:11:27.991Z,21.20
2023-05-09T05:13:56.650Z,25.40
2023-05-09T05:16:24.669Z,21.50
2023-05-09T05:18:52.676Z,20.57
2023-05-09T05:21:21.293Z,21.83
2023-05-09T05:23:51.502Z,22.93
2023-05-09T05:26:19.467Z,21.77
2023-05-09T05:28:47.369Z,22.93
2023-05-09T05:31:15.434Z,19.60
2023-05-09T05:33:43.297Z,20.00
2023-05-09T05:36:11.479Z,18.00
2023-05-09T05:38:39.395Z,27.07
2023-05-09T05:41:11.268Z,19.33
2023-05-09T05:43:40.517Z,22.03
2023-05-09T05:46:09.104Z,25.67
2023-05-09T05:48:37.345Z,19.03
2023-05-09T05:51:05.208Z,18.43
2023-05-09T05:53:33.525Z,18.00
2023-05-09T05:56:01.492Z,20.90
2023-05-09T05:58:31.725Z,20.17
2023-05-09T06:00:59.597Z,27.53
2023-05-09T06:03:27.790Z,23.07
2023-05-09T06:06:02.449Z,21.10
2023-05-09T06:08:30.408Z,19.87
2023-05-09T06:10:59.397Z,17.27
2023-05-09T06:13:27.242Z,19.07
2023-05-09T06:16:14.909Z,19.80
2023-05-09T06:18:48.652Z,22.13
2023-05-09T06:21:16.489Z,17.50
2023-05-09T06:23:57.819Z,18.30
2023-05-09T06:26:32.162Z,22.00
2023-05-09T06:29:01.156Z,20.83
2023-05-09T06:31:31.071Z,29.50
2023-05-09T06:33:58.961Z,23.13
2023-05-09T06:36:27.050Z,19.63
2023-05-09T06:38:57.890Z,19.37
2023-05-09T06:41:26.019Z,23.93
2023-05-09T06:43:54.014Z,24.30
2023-05-09T06:46:21.946Z,19.80
2023-05-09T06:48:51.280Z,19.57
2023-05-09T06:51:19.086Z,18.80
2023-05-09T06:53:46.904Z,25.80
2023-05-09T06:56:15.030Z,26.47
2023-05-09T06:58:42.858Z,20.40
2023-05-09T07:01:10.759Z,23.03
2023-05-09T07:03:38.581Z,20.97
2023-05-09T07:06:08.198Z,21.80
2023-05-09T07:08:36.079Z,22.90
2023-05-09T07:11:03.904Z,18.87
2023-05-09T07:13:31.763Z,20.13
2023-05-09T07:15:59.629Z,17.80
2023-05-09T07:18:27.520Z,19.43
2023-05-09T07:20:55.500Z,18.67
2023-05-09T07:23:25.399Z,17.43
2023-05-09T07:25:58.314Z,17.33
2023-05-09T07:28:26.405Z,19.53
2023-05-09T07:30:56.344Z,21.50
2023-05-09T07:33:24.418Z,18.57
2023-05-09T07:35:53.220Z,19.97
2023-05-09T07:38:21.109Z,19.23
2023-05-09T07:40:50.772Z,17.70
2023-05-09T07:43:18.663Z,17.73
2023-05-09T07:45:47.147Z,19.17
2023-05-09T07:48:15.117Z,19.80
2023-05-09T07:50:42.942Z,18.90
2023-05-09T07:53:10.878Z,19.43
2023-05-09T07:55:38.683Z,17.93
2023-05-09T07:58:08.148Z,25.20
2023-05-09T08:00:36.068Z,21.27
2023-05-09T08:03:04.173Z,19.73
2023-05-09T08:05:32.154Z,16.90
2023-05-09T08:08:00.110Z,19.20
2023-05-09T08:10:30.687Z,19.27
2023-05-09T08:12:58.593Z,21.40
2023-05-09T08:15:27.974Z,20.63
2023-05-09T08:17:56.092Z,20.70
2023-05-09T08:20:24.282Z,21.73
2023-05-09T08:22:52.188Z,19.43
2023-05-09T08:25:20.940Z,20.97
2023-05-09T08:27:49.487Z,19.80
2023-05-09T08:30:18.307Z,20.07
2023-05-09T08:32:47.581Z,16.87
2023-05-09T08:35:15.707Z,16.40
2023-05-09T08:37:43.986Z,18.60
2023-05-09T08:40:12.411Z,19.97
2023-05-09T08:42:40.671Z,18.83
2023-05-09T08:45:10.900Z,22.93
2023-05-09T08:47:39.209Z,22.87
2023-05-09T08:50:09.817Z,20.43
2023-05-09T08:52:37.648Z,22.43
2023-05-09T08:55:06.332Z,19.63
2023-05-09T08:57:35.323Z,18.30
2023-05-09T09:00:05.996Z,22.30
2023-05-09T09:02:34.452Z,18.07
2023-05-09T09:05:02.976Z,19.17
2023-05-09T09:07:35.185Z,15.33
2023-05-09T09:10:04.424Z,19.43
2023-05-09T09:12:32.592Z,15.70
2023-05-09T09:15:05.953Z,17.07
2023-05-09T09:17:34.668Z,17.33
2023-05-09T09:20:05.658Z,14.97
2023-05-09T09:22:35.029Z,14.90
2023-05-09T09:25:02.814Z,16.20
2023-05-09T09:27:32.709Z,16.73
2023-05-09T09:30:08.113Z,21.37
2023-05-09T09:32:36.809Z,16.20
2023-05-09T09:35:08.747Z,15.10
2023-05-09T09:37:40.585Z,14.00
2023-05-09T09:40:10.089Z,17.10
2023-05-09T09:42:44.552Z,15.53
2023-05-09T09:45:13.853Z,16.30
2023-05-09T09:47:42.333Z,16.30
2023-05-09T09:50:15.293Z,17.03
2023-05-09T09:52:45.823Z,18.07
2023-05-09T09:55:14.272Z,15.20
2023-05-09T09:57:45.135Z,18.77
2023-05-09T10:00:14.490Z,18.10
2023-05-09T10:02:50.256Z,15.40
2023-05-09T10:05:22.493Z,17.77
2023-05-09T10:07:59.271Z,23.83
2023-05-09T10:10:28.307Z,15.67
2023-05-09T10:12:58.684Z,19.53
2023-05-09T10:15:28.723Z,17.63
2023-05-09T10:18:00.977Z,18.57
2023-05-09T10:20:29.725Z,17.50
2023-05-09T10:23:03.512Z,19.30
2023-05-09T10:25:39.669Z,16.07
2023-05-09T10:28:12.430Z,15.83
2023-05-09T10:30:47.910Z,15.07
2023-05-09T10:33:17.314Z,13.40
2023-05-09T10:35:47.431Z,18.07
2023-05-09T10:38:17.486Z,12.83
2023-05-09T10:40:48.764Z,12.37
2023-05-09T10:43:16.823Z,10.63
2023-05-09T10:45:44.847Z,14.63
2023-05-09T10:48:13.090Z,11.17
2023-05-09T10:50:42.585Z,10.70
2023-05-09T10:53:14.268Z,10.40
2023-05-09T10:55:52.333Z,9.63
2023-05-09T10:58:26.384Z,9.13
2023-05-09T11:00:57.118Z,9.33
2023-05-09T11:03:25.904Z,8.73
2023-05-09T11:05:55.424Z,8.60
2023-05-09T11:08:25.457Z,9.53
2023-05-09T11:10:55.183Z,8.60
2023-05-09T11:13:25.396Z,11.47
2023-05-09T11:16:11.242Z,9.10
2023-05-09T11:18:51.921Z,7.53
2023-05-09T11:21:21.443Z,7.33
2023-05-09T11:23:50.437Z,8.60
2023-05-09T11:26:23.599Z,7.50
2023-05-09T11:28:56.780Z,7.83
2023-05-09T11:31:24.808Z,7.27
2023-05-09T11:33:58.289Z,8.20
2023-05-09T11:36:31.959Z,6.73
2023-05-09T11:39:04.905Z,6.50
2023-05-09T11:41:40.829Z,6.60
2023-05-09T11:44:18.934Z,6.50
2023-05-09T11:46:47.311Z,6.40
2023-05-09T11:49:15.536Z,6.80
2023-05-09T11:51:43.677Z,7.70
2023-05-09T11:54:13.695Z,7.43
2023-05-09T11:56:43.132Z,8.03
2023-05-09T11:59:13.182Z,6.73
2023-05-09T12:01:41.112Z,5.77
2023-05-09T12:04:09.094Z,7.37
2023-05-09T12:06:37.790Z,5.73
2023-05-09T12:09:06.632Z,5.90
2023-05-09T12:11:36.733Z,5.63
2023-05-09T12:14:05.895Z,5.30
2023-05-09T12:16:33.750Z,5.60
2023-05-09T12:19:01.622Z,5.17
2023-05-09T12:21:29.611Z,5.00
2023-05-09T12:23:57.761Z,6.03
2023-05-09T12:26:25.588Z,5.30
2023-05-09T12:28:53.493Z,4.47
2023-05-09T12:31:23.668Z,4.70
2023-05-09T12:33:51.612Z,4.03
2023-05-09T12:36:19.524Z,4.37
2023-05-09T12:38:54.219Z,8.10
2023-05-09T12:43:58.206Z,4.20
2023-05-09T12:46:27.706Z,4.37
2023-05-09T12:48:55.694Z,3.90
2023-05-09T12:51:24.409Z,4.30
2023-05-09T12:53:52.505Z,4.07
2023-05-09T12:56:21.383Z,5.30
2023-05-09T12:58:50.633Z,3.70
2023-05-09T13:01:18.986Z,3.30
2023-05-09T13:03:52.704Z,5.07
2023-05-09T13:06:21.171Z,3.23
2023-05-09T13:08:58.897Z,4.03
2023-05-09T13:11:26.850Z,3.20
2023-05-09T13:13:55.429Z,3.70
2023-05-09T13:16:23.307Z,3.00
2023-05-09T13:18:52.585Z,4.03
2023-05-09T13:21:21.040Z,4.23
2023-05-09T13:23:50.156Z,4.20
2023-05-09T13:26:19.828Z,4.70
2023-05-09T13:28:47.733Z,8.33
2023-05-09T13:31:15.691Z,3.70
2023-05-09T13:33:43.586Z,3.50
2023-05-09T13:36:12.825Z,3.70
2023-05-09T13:38:40.897Z,6.00
2023-05-09T13:41:08.862Z,3.60
2023-05-09T13:43:37.093Z,3.63
2023-05-09T13:46:05.459Z,4.70
2023-05-09T13:48:33.812Z,4.60
2023-05-09T13:51:01.657Z,4.00
2023-05-09T13:53:31.415Z,4.37
2023-05-09T13:55:59.308Z,6.53
2023-05-09T13:58:27.161Z,4.10
2023-05-09T14:00:55.250Z,3.60
2023-05-09T14:03:23.146Z,4.17
2023-05-09T14:05:51.037Z,5.40
2023-05-09T14:08:22.239Z,4.10
2023-05-09T14:10:51.490Z,3.80
2023-05-09T14:13:19.421Z,4.20
2023-05-09T14:15:47.431Z,5.57
2023-05-09T14:18:17.840Z,3.97
2023-05-09T14:20:47.363Z,8.90
2023-05-09T14:23:15.176Z,4.10
2023-05-09T14:25:43.030Z,4.77
2023-05-09T14:28:12.207Z,9.60
2023-05-09T14:30:40.033Z,6.03
2023-05-09T14:33:08.090Z,5.77
2023-05-09T14:35:39.650Z,10.23
2023-05-09T14:38:09.005Z,7.00
2023-05-09T14:40:37.117Z,13.83
2023-05-09T14:43:05.928Z,11.33
2023-05-09T14:45:35.245Z,18.47
2023-05-09T14:48:03.769Z,18.43
2023-05-09T14:50:31.860Z,9.50
2023-05-09T14:52:59.795Z,11.07
2023-05-09T14:55:27.942Z,13.50
2023-05-09T14:57:56.232Z,9.47
2023-05-09T15:00:25.763Z,12.87
2023-05-09T15:02:58.374Z,13.90
2023-05-09T15:05:26.316Z,13.53
2023-05-09T15:07:54.200Z,11.03
2023-05-09T15:10:22.226Z,12.80
2023-05-09T15:12:50.160Z,14.07
2023-05-09T15:15:19.833Z,13.87
2023-05-09T15:17:48.171Z,13.57
2023-05-09T15:20:19.528Z,14.60
2023-05-09T15:22:48.126Z,14.80
2023-05-09T15:25:16.306Z,12.40
2023-05-09T15:27:44.255Z,13.93
2023-05-09T15:30:15.768Z,16.10
2023-05-09T15:32:43.806Z,13.40
2023-05-09T15:35:11.757Z,13.77
2023-05-09T15:37:41.657Z,11.73
2023-05-09T15:40:10.405Z,11.63
2023-05-09T15:42:39.732Z,13.53
2023-05-09T15:45:08.928Z,12.53
2023-05-09T15:47:37.241Z,12.93
2023-05-09T15:50:05.616Z,14.60
2023-05-09T15:52:33.479Z,12.80
2023-05-09T15:55:03.524Z,13.33
2023-05-09T15:57:31.491Z,14.67
2023-05-09T15:59:59.336Z,16.13
2023-05-09T16:02:28.517Z,15.03
2023-05-09T16:04:56.499Z,16.80
2023-05-09T16:07:26.050Z,15.20
2023-05-09T16:09:54.022Z,15.10
2023-05-09T16:12:24.303Z,15.50
2023-05-09T16:14:52.173Z,16.77
2023-05-09T16:17:20.195Z,16.17
2023-05-09T16:19:48.085Z,16.17
2023-05-09T16:22:15.946Z,20.00
2023-05-09T16:24:43.962Z,18.20
2023-05-09T16:27:11.872Z,21.30
2023-05-09T16:29:41.127Z,22.77
2023-05-09T16:32:12.241Z,21.50
2023-05-09T16:34:40.458Z,23.00
2023-05-09T16:37:08.423Z,18.27
2023-05-09T16:39:36.294Z,20.80
2023-05-09T16:42:05.498Z,19.63
2023-05-09T16:44:33.463Z,18.17
2023-05-09T16:47:02.679Z,22.63
2023-05-09T16:49:30.637Z,19.60
2023-05-09T16:51:58.893Z,25.23
2023-05-09T16:54:27.261Z,21.17
2023-05-09T16:56:55.159Z,28.10
2023-05-09T16:59:23.512Z,21.33
2023-05-09T17:01:52.362Z,21.37
2023-05-09T17:04:21.718Z,24.37
2023-05-09T17:06:51.655Z,18.87
2023-05-09T17:09:19.750Z,18.30
2023-05-09T17:11:47.897Z,20.03
2023-05-09T17:14:15.825Z,20.60
2023-05-09T17:16:43.776Z,19.10
2023-05-09T17:19:11.668Z,20.63
2023-05-09T17:21:41.671Z,21.23
2023-05-09T17:24:09.945Z,11.17
2023-05-09T17:26:38.682Z,14.07
2023-05-09T17:29:06.672Z,13.70
2023-05-09T17:31:34.602Z,10.67
2023-05-09T17:34:04.158Z,11.10
2023-05-09T17:36:32.116Z,14.70
2023-05-09T17:39:01.460Z,18.07
2023-05-09T17:41:29.333Z,11.93
2023-05-09T17:43:57.554Z,15.27
2023-05-09T17:46:26.408Z,13.80
2023-05-09T17:48:54.316Z,14.70
2023-05-09T17:51:22.431Z,12.90
2023-05-09T17:53:50.351Z,10.23
2023-05-09T17:56:19.638Z,8.20
2023-05-09T17:58:47.940Z,12.20
2023-05-09T18:01:16.162Z,9.83
2023-05-09T18:03:44.637Z,15.93
2023-05-09T18:06:12.786Z,11.37
2023-05-09T18:08:40.650Z,9.63
2023-05-09T18:11:08.508Z,16.07
2023-05-09T18:13:37.759Z,15.43
2023-05-09T18:16:06.160Z,14.00
2023-05-09T18:18:35.569Z,33.77
2023-05-09T18:21:04.973Z,16.30
2023-05-09T18:23:32.841Z,16.33
2023-05-09T18:26:00.802Z,12.80
2023-05-09T18:28:28.819Z,11.73
2023-05-09T18:30:59.766Z,11.77
2023-05-09T18:33:29.197Z,12.40
2023-05-09T18:35:57.394Z,10.70
2023-05-09T18:38:25.473Z,16.20
2023-05-09T18:40:53.708Z,20.53
2023-05-09T18:43:22.081Z,17.23
2023-05-09T18:45:50.048Z,12.63
2023-05-09T18:48:19.368Z,14.83
2023-05-09T18:50:47.329Z,17.70
2023-05-09T18:53:15.248Z,14.90
2023-05-09T18:55:43.318Z,21.60
2023-05-09T18:58:12.536Z,13.73
2023-05-09T19:00:42.765Z,16.60
2023-05-09T19:03:10.809Z,18.10
2023-05-09T19:05:40.067Z,18.20
2023-05-09T19:08:07.976Z,22.57
2023-05-09T19:10:37.951Z,17.77
2023-05-09T19:13:06.348Z,9.20
2023-05-09T19:15:34.825Z,7.77
2023-05-09T19:18:03.187Z,4.77
2023-05-09T19:20:31.548Z,4.43
2023-05-09T19:23:01.631Z,3.50
2023-05-09T19:25:30.461Z,3.20
2023-05-09T19:27:58.356Z,2.73
2023-05-09T19:30:26.426Z,8.47
2023-05-09T19:32:54.368Z,2.73
2023-05-09T19:35:22.398Z,4.10
2023-05-09T19:37:50.277Z,3.67
2023-05-09T19:40:19.534Z,3.10
2023-05-09T19:42:47.398Z,4.90
2023-05-09T19:45:15.294Z,3.03
2023-05-09T19:47:43.677Z,2.73
2023-05-09T19:50:12.264Z,2.93
2023-05-09T19:52:40.174Z,4.40
2023-05-09T19:55:08.829Z,3.53
2023-05-09T19:57:38.274Z,3.60
2023-05-09T20:00:07.494Z,6.23
2023-05-09T20:02:36.305Z,3.70
2023-05-09T20:05:04.637Z,5.43
2023-05-09T20:07:32.501Z,4.00
2023-05-09T20:10:00.362Z,5.00
2023-05-09T20:12:30.171Z,4.87
2023-05-09T20:14:59.892Z,6.53
2023-05-09T20:17:28.073Z,4.93
2023-05-09T20:19:56.330Z,4.60
2023-05-09T20:22:24.390Z,5.90
2023-05-09T20:24:52.452Z,4.43
2023-05-09T20:27:20.357Z,4.60
2023-05-09T20:29:48.309Z,5.57
2023-05-09T20:32:17.545Z,6.80
2023-05-09T20:34:45.477Z,4.90
2023-05-09T20:37:13.885Z,5.27
2023-05-09T20:39:41.964Z,5.53
2023-05-09T20:42:10.099Z,6.67
2023-05-09T20:44:39.354Z,6.47
2023-05-09T20:47:07.291Z,6.87
2023-05-09T20:49:36.745Z,6.10
2023-05-09T20:52:05.016Z,5.60
2023-05-09T20:54:32.880Z,5.47
2023-05-09T20:57:00.760Z,5.40
2023-05-09T20:59:28.762Z,5.77
2023-05-09T21:01:57.480Z,7.07
2023-05-09T21:04:26.611Z,6.80
2023-05-09T21:06:55.897Z,5.50
2023-05-09T21:09:24.043Z,5.90
2023-05-09T21:11:51.893Z,6.67
2023-05-09T21:14:19.869Z,5.47
2023-05-09T21:16:47.841Z,10.60
2023-05-09T21:19:15.813Z,9.57
2023-05-09T21:21:43.699Z,5.33
2023-05-09T21:24:13.320Z,6.43
2023-05-09T21:26:41.420Z,5.07
2023-05-09T21:29:09.469Z,5.00
2023-05-09T21:31:37.590Z,5.23
2023-05-09T21:34:09.805Z,5.40
2023-05-09T21:36:38.486Z,5.13
2023-05-09T21:39:09.221Z,4.80
2023-05-09T21:41:39.956Z,4.63
2023-05-09T21:44:08.408Z,5.03
2023-05-09T21:46:36.594Z,5.20
2023-05-09T21:49:04.600Z,5.33
2023-05-09T21:51:33.542Z,7.07
2023-05-09T21:54:01.878Z,4.87
2023-05-09T21:56:29.761Z,5.00
2023-05-09T21:58:59.013Z,4.87
2023-05-09T22:01:26.958Z,5.00
2023-05-09T22:03:54.965Z,5.33
2023-05-09T22:06:23.030Z,4.40
2023-05-09T22:08:51.227Z,6.80
2023-05-09T22:11:19.192Z,3.90
2023-05-09T22:13:47.056Z,4.87
2023-05-09T22:16:16.351Z,4.10
2023-05-09T22:18:44.334Z,3.53
2023-05-09T22:21:12.716Z,4.03
2023-05-09T22:23:40.750Z,3.20
2023-05-09T22:26:08.685Z,3.80
2023-05-09T22:28:36.596Z,6.47
2023-05-09T22:31:06.666Z,3.80
2023-05-09T22:33:35.957Z,3.07
2023-05-09T22:36:03.977Z,3.67
2023-05-09T22:38:31.876Z,3.50
2023-05-09T22:40:59.763Z,4.90
2023-05-09T22:43:33.843Z,3.83
2023-05-09T22:46:06.700Z,7.33
2023-05-09T22:48:36.035Z,3.50
2023-05-09T22:51:04.041Z,3.77
2023-05-09T22:53:32.761Z,3.70
2023-05-09T22:56:00.632Z,2.60
2023-05-09T22:58:29.153Z,3.30
2023-05-09T23:00:57.057Z,2.60
2023-05-09T23:03:25.122Z,1.90
2023-05-09T23:05:54.432Z,1.90
2023-05-09T23:08:22.301Z,2.20
2023-05-09T23:10:50.268Z,1.43
2023-05-09T23:13:18.301Z,1.40
2023-05-09T23:15:48.224Z,1.67
2023-05-09T23:18:16.183Z,1.23
2023-05-09T23:20:44.089Z,1.30
2023-05-09T23:23:13.311Z,1.33
2023-05-09T23:25:41.256Z,1.30
2023-05-09T23:28:09.285Z,1.43
2023-05-09T23:30:37.220Z,1.10
2023-05-09T23:33:05.258Z,3.13
2023-05-09T23:35:33.217Z,1.30
2023-05-09T23:38:01.125Z,1.87
2023-05-09T23:40:30.404Z,1.00
2023-05-09T23:42:58.310Z,1.00
2023-05-09T23:45:26.805Z,2.43
2023-05-09T23:47:58.189Z,0.83
2023-05-09T23:50:26.073Z,0.80
2023-05-09T23:52:54.070Z,3.33
2023-05-09T23:55:21.976Z,0.80
2023-05-09T23:57:51.186Z,0.80
